TimePDT,TemperatureF,Dew PointF,Humidity,Sea Level PressureIn,VisibilityMPH,Wind Direction,Wind SpeedMPH,Gust SpeedMPH,PrecipitationIn,Events,Conditions,WindDirDegrees,DateUTC
12:52 AM,57.0,34.0,42,29.85,10.0,SSE,6.9,-,N/A,,Overcast,160,2012-10-20 07:52:00
1:52 AM,57.0,33.1,40,29.83,10.0,SSE,5.8,-,N/A,,Overcast,150,2012-10-20 08:52:00
2:52 AM,55.9,32.0,40,29.82,10.0,SSE,6.9,-,N/A,,Partly Cloudy,150,2012-10-20 09:52:00
3:52 AM,55.9,30.9,39,29.81,10.0,SSE,6.9,-,N/A,,Overcast,150,2012-10-20 10:52:00
4:52 AM,55.0,30.9,40,29.81,10.0,SSE,6.9,-,N/A,,Mostly Cloudy,160,2012-10-20 11:52:00
5:52 AM,54.0,30.9,41,29.82,10.0,South,4.6,-,N/A,,Clear,180,2012-10-20 12:52:00
6:52 AM,53.1,30.9,43,29.83,10.0,SE,8.1,-,N/A,,Clear,140,2012-10-20 13:52:00
7:52 AM,53.1,30.9,43,29.83,10.0,SE,5.8,-,N/A,,Clear,140,2012-10-20 14:52:00
8:52 AM,55.0,32.0,42,29.81,10.0,SSE,11.5,-,N/A,,Clear,160,2012-10-20 15:52:00
9:52 AM,57.0,32.0,39,29.82,10.0,South,10.4,16.1,N/A,,Clear,170,2012-10-20 16:52:00
10:52 AM,57.0,34.0,42,29.80,10.0,South,12.7,18.4,N/A,,Clear,180,2012-10-20 17:52:00
11:52 AM,57.9,36.0,44,29.80,10.0,South,9.2,18.4,N/A,,Clear,170,2012-10-20 18:52:00
12:52 PM,60.1,37.0,42,29.77,10.0,South,11.5,19.6,N/A,,Clear,190,2012-10-20 19:52:00
1:52 PM,61.0,39.0,44,29.75,10.0,South,9.2,19.6,N/A,,Clear,180,2012-10-20 20:52:00
2:52 PM,61.0,39.9,46,29.73,10.0,South,11.5,18.4,N/A,,Scattered Clouds,180,2012-10-20 21:52:00
3:52 PM,59.0,42.1,53,29.74,10.0,South,12.7,-,N/A,,Scattered Clouds,170,2012-10-20 22:52:00
4:52 PM,57.9,41.0,53,29.74,10.0,SW,6.9,-,N/A,,Clear,220,2012-10-20 23:52:00
5:52 PM,55.0,45.0,69,29.75,10.0,SW,6.9,-,N/A,,Clear,220,2012-10-21 00:52:00
6:52 PM,52.0,46.9,83,29.77,10.0,SW,3.5,-,N/A,,Clear,230,2012-10-21 01:52:00
7:52 PM,48.9,46.9,93,29.78,10.0,SSE,4.6,-,N/A,,Clear,150,2012-10-21 02:52:00
8:52 PM,48.9,46.9,93,29.78,10.0,SE,4.6,-,N/A,,Clear,140,2012-10-21 03:52:00
9:52 PM,48.0,46.0,93,29.78,10.0,Calm,Calm,-,N/A,,Clear,0,2012-10-21 04:52:00
10:52 PM,48.0,45.0,89,29.77,10.0,SE,4.6,-,N/A,,Clear,130,2012-10-21 05:52:00
11:52 PM,46.9,44.1,90,29.77,10.0,SE,3.5,-,N/A,,Clear,140,2012-10-21 06:52:00